sensor_id;sensor_type;location;lat;lon;timestamp;pressure;altitude;pressure_sealevel;temperature;humidity
38558;BME280;24333;42.626;23.308;2023-05-15T00:01:15;70250.97;;;-148.95;100.00
38558;BME280;24333;42.626;23.308;2023-05-15T00:03:41;70238.50;;;-148.95;100.00
38558;BME280;24333;42.626;23.308;2023-05-15T00:06:06;70234.38;;;-148.95;100.00
38558;BME280;24333;42.626;23.308;2023-05-15T00:08:31;70230.22;;;-148.95;100.00
38558;BME280;24333;42.626;23.308;2023-05-15T00:10:57;70226.06;;;-148.95;100.00
38558;BME280;24333;42.626;23.308;2023-05-15T00:13:22;70242.66;;;-148.95;100.00
38558;BME280;24333;42.626;23.308;2023-05-15T00:15:48;70259.25;;;-148.95;100.00
38558;BME280;24333;42.626;23.308;2023-05-15T00:18:13;70280.00;;;-148.95;100.00
38558;BME280;24333;42.626;23.308;2023-05-15T00:20:38;70302.84;;;-148.95;100.00
38558;BME280;24333;42.626;23.308;2023-05-15T00:23:04;70317.34;;;-148.95;100.00
38558;BME280;24333;42.626;23.308;2023-05-15T00:25:29;70325.66;;;-148.95;100.00
38558;BME280;24333;42.626;23.308;2023-05-15T00:27:55;70317.34;;;-148.95;100.00
38558;BME280;24333;42.626;23.308;2023-05-15T00:30:20;70331.88;;;-148.95;100.00
38558;BME280;24333;42.626;23.308;2023-05-15T00:32:46;70340.19;;;-148.95;100.00
38558;BME280;24333;42.626;23.308;2023-05-15T00:35:11;70338.09;;;-148.95;100.00
38558;BME280;24333;42.626;23.308;2023-05-15T00:37:36;70338.09;;;-148.95;100.00
38558;BME280;24333;42.626;23.308;2023-05-15T00:40:05;70338.09;;;-148.95;100.00
38558;BME280;24333;42.626;23.308;2023-05-15T00:42:32;70325.66;;;-148.95;100.00
38558;BME280;24333;42.626;23.308;2023-05-15T00:44:59;70329.81;;;-148.95;100.00
38558;BME280;24333;42.626;23.308;2023-05-15T00:47:25;70323.56;;;-148.95;100.00
38558;BME280;24333;42.626;23.308;2023-05-15T01:20:23;70346.41;;;-148.95;100.00
38558;BME280;24333;42.626;23.308;2023-05-15T01:24:03;70346.41;;;-148.95;100.00
38558;BME280;24333;42.626;23.308;2023-05-15T01:29:04;70331.88;;;-148.95;100.00
38558;BME280;24333;42.626;23.308;2023-05-15T01:31:33;70327.72;;;-148.95;100.00
38558;BME280;24333;42.626;23.308;2023-05-15T01:49:38;70338.09;;;-148.95;100.00
38558;BME280;24333;42.626;23.308;2023-05-15T01:52:23;70340.19;;;-148.95;100.00
38558;BME280;24333;42.626;23.308;2023-05-15T01:54:49;70336.03;;;-148.95;100.00
38558;BME280;24333;42.626;23.308;2023-05-15T01:57:16;70336.03;;;-148.95;100.00
38558;BME280;24333;42.626;23.308;2023-05-15T01:59:43;70338.09;;;-148.95;100.00
38558;BME280;24333;42.626;23.308;2023-05-15T02:02:09;70346.41;;;-148.95;100.00
38558;BME280;24333;42.626;23.308;2023-05-15T02:04:37;70346.41;;;-148.95;100.00
38558;BME280;24333;42.626;23.308;2023-05-15T02:07:03;70360.91;;;-148.95;100.00
38558;BME280;24333;42.626;23.308;2023-05-15T02:09:30;70369.22;;;-148.95;100.00
38558;BME280;24333;42.626;23.308;2023-05-15T02:11:57;70354.69;;;-148.95;100.00
38558;BME280;24333;42.626;23.308;2023-05-15T02:14:25;70358.84;;;-148.95;100.00
38558;BME280;24333;42.626;23.308;2023-05-15T02:16:52;70367.16;;;-148.95;100.00
38558;BME280;24333;42.626;23.308;2023-05-15T02:19:17;70367.16;;;-148.95;100.00
38558;BME280;24333;42.626;23.308;2023-05-15T02:21:43;70360.91;;;-148.95;100.00
38558;BME280;24333;42.626;23.308;2023-05-15T02:24:08;70371.28;;;-148.95;100.00
38558;BME280;24333;42.626;23.308;2023-05-15T02:29:21;70363.00;;;-148.95;100.00
38558;BME280;24333;42.626;23.308;2023-05-15T02:32:02;70342.25;;;-148.95;100.00
38558;BME280;24333;42.626;23.308;2023-05-15T02:34:53;70346.41;;;-148.95;100.00
38558;BME280;24333;42.626;23.308;2023-05-15T02:37:24;70344.31;;;-148.95;100.00
38558;BME280;24333;42.626;23.308;2023-05-15T02:39:51;70338.09;;;-148.95;100.00
38558;BME280;24333;42.626;23.308;2023-05-15T02:42:19;70333.94;;;-148.95;100.00
38558;BME280;24333;42.626;23.308;2023-05-15T02:44:45;70336.03;;;-148.95;100.00
38558;BME280;24333;42.626;23.308;2023-05-15T02:47:11;70329.81;;;-148.95;100.00
38558;BME280;24333;42.626;23.308;2023-05-15T02:49:38;70327.72;;;-148.95;100.00
38558;BME280;24333;42.626;23.308;2023-05-15T02:52:03;70323.56;;;-148.95;100.00
38558;BME280;24333;42.626;23.308;2023-05-15T02:54:29;70315.28;;;-148.95;100.00
38558;BME280;24333;42.626;23.308;2023-05-15T02:56:54;70304.91;;;-148.95;100.00
38558;BME280;24333;42.626;23.308;2023-05-15T02:59:20;70302.84;;;-148.95;100.00
38558;BME280;24333;42.626;23.308;2023-05-15T03:01:46;70304.91;;;-148.95;100.00
38558;BME280;24333;42.626;23.308;2023-05-15T03:04:15;70304.91;;;-148.95;100.00
38558;BME280;24333;42.626;23.308;2023-05-15T03:06:40;70300.75;;;-148.95;100.00
38558;BME280;24333;42.626;23.308;2023-05-15T03:09:06;70304.91;;;-148.95;100.00
38558;BME280;24333;42.626;23.308;2023-05-15T03:11:32;70311.13;;;-148.95;100.00
38558;BME280;24333;42.626;23.308;2023-05-15T03:13:57;70304.91;;;-148.95;100.00
38558;BME280;24333;42.626;23.308;2023-05-15T03:16:26;70311.13;;;-148.95;100.00
38558;BME280;24333;42.626;23.308;2023-05-15T03:18:51;70313.19;;;-148.95;100.00
38558;BME280;24333;42.626;23.308;2023-05-15T03:21:17;70315.28;;;-148.95;100.00
38558;BME280;24333;42.626;23.308;2023-05-15T03:23:43;70300.75;;;-148.95;100.00
38558;BME280;24333;42.626;23.308;2023-05-15T03:26:08;70296.59;;;-148.95;100.00
38558;BME280;24333;42.626;23.308;2023-05-15T03:28:33;70304.91;;;-148.95;100.00
38558;BME280;24333;42.626;23.308;2023-05-15T03:30:59;70302.84;;;-148.95;100.00
38558;BME280;24333;42.626;23.308;2023-05-15T03:33:24;70286.22;;;-148.95;100.00
38558;BME280;24333;42.626;23.308;2023-05-15T03:35:51;70284.16;;;-148.95;100.00
38558;BME280;24333;42.626;23.308;2023-05-15T03:38:26;70277.94;;;-148.95;100.00
38558;BME280;24333;42.626;23.308;2023-05-15T03:40:51;70267.56;;;-148.95;100.00
38558;BME280;24333;42.626;23.308;2023-05-15T03:43:16;70259.25;;;-148.95;100.00
38558;BME280;24333;42.626;23.308;2023-05-15T03:45:42;70259.25;;;-148.95;100.00
38558;BME280;24333;42.626;23.308;2023-05-15T03:48:08;70248.88;;;-148.95;100.00
38558;BME280;24333;42.626;23.308;2023-05-15T03:50:33;70253.03;;;-148.95;100.00
38558;BME280;24333;42.626;23.308;2023-05-15T03:52:59;70250.97;;;-148.95;100.00
38558;BME280;24333;42.626;23.308;2023-05-15T03:55:24;70246.81;;;-148.95;100.00
38558;BME280;24333;42.626;23.308;2023-05-15T03:57:49;70250.97;;;-148.95;100.00
38558;BME280;24333;42.626;23.308;2023-05-15T04:00:15;70244.75;;;-148.95;100.00
38558;BME280;24333;42.626;23.308;2023-05-15T04:02:40;70242.66;;;-148.95;100.00
38558;BME280;24333;42.626;23.308;2023-05-15T04:05:07;70232.28;;;-148.95;100.00
38558;BME280;24333;42.626;23.308;2023-05-15T04:07:33;70228.16;;;-148.95;100.00
38558;BME280;24333;42.626;23.308;2023-05-15T04:09:59;70228.16;;;-148.95;100.00
38558;BME280;24333;42.626;23.308;2023-05-15T04:12:35;70232.28;;;-148.95;100.00
38558;BME280;24333;42.626;23.308;2023-05-15T04:15:21;70248.88;;;-148.95;100.00
38558;BME280;24333;42.626;23.308;2023-05-15T04:17:47;70255.13;;;-148.95;100.00
38558;BME280;24333;42.626;23.308;2023-05-15T04:20:14;70259.25;;;-148.95;100.00
38558;BME280;24333;42.626;23.308;2023-05-15T04:22:41;70253.03;;;-148.95;100.00
38558;BME280;24333;42.626;23.308;2023-05-15T04:25:07;70240.59;;;-148.95;100.00
38558;BME280;24333;42.626;23.308;2023-05-15T04:27:33;70236.44;;;-148.95;100.00
38558;BME280;24333;42.626;23.308;2023-05-15T04:29:59;70217.78;;;-148.95;100.00
38558;BME280;24333;42.626;23.308;2023-05-15T04:32:25;70215.69;;;-148.95;100.00
38558;BME280;24333;42.626;23.308;2023-05-15T04:34:52;70209.47;;;-148.95;100.00
38558;BME280;24333;42.626;23.308;2023-05-15T04:37:17;70201.16;;;-148.95;100.00
38558;BME280;24333;42.626;23.308;2023-05-15T04:39:43;70186.66;;;-148.95;100.00
38558;BME280;24333;42.626;23.308;2023-05-15T04:42:08;70174.19;;;-148.95;100.00
38558;BME280;24333;42.626;23.308;2023-05-15T04:44:33;70149.31;;;-148.95;100.00
38558;BME280;24333;42.626;23.308;2023-05-15T04:46:59;70149.31;;;-148.95;100.00
38558;BME280;24333;42.626;23.308;2023-05-15T04:49:24;70153.47;;;-148.95;100.00
38558;BME280;24333;42.626;23.308;2023-05-15T04:51:50;70153.47;;;-148.95;100.00
38558;BME280;24333;42.626;23.308;2023-05-15T04:54:15;70151.38;;;-148.95;100.00
38558;BME280;24333;42.626;23.308;2023-05-15T04:56:40;70151.38;;;-148.95;100.00
38558;BME280;24333;42.626;23.308;2023-05-15T04:59:06;70149.31;;;-148.95;100.00
38558;BME280;24333;42.626;23.308;2023-05-15T05:01:31;70151.38;;;-148.95;100.00
38558;BME280;24333;42.626;23.308;2023-05-15T05:03:56;70178.34;;;-148.95;100.00
38558;BME280;24333;42.626;23.308;2023-05-15T05:06:22;70174.19;;;-148.95;100.00
38558;BME280;24333;42.626;23.308;2023-05-15T05:08:48;70178.34;;;-148.95;100.00
38558;BME280;24333;42.626;23.308;2023-05-15T05:11:13;70159.69;;;-148.95;100.00
38558;BME280;24333;42.626;23.308;2023-05-15T05:13:39;70149.31;;;-148.95;100.00
38558;BME280;24333;42.626;23.308;2023-05-15T05:16:06;70153.47;;;-148.95;100.00
38558;BME280;24333;42.626;23.308;2023-05-15T05:18:31;70174.19;;;-148.95;100.00
38558;BME280;24333;42.626;23.308;2023-05-15T05:21:01;70165.91;;;-148.95;100.00
38558;BME280;24333;42.626;23.308;2023-05-15T05:23:27;70155.53;;;-148.95;100.00
38558;BME280;24333;42.626;23.308;2023-05-15T05:25:54;70151.38;;;-148.95;100.00
38558;BME280;24333;42.626;23.308;2023-05-15T05:28:19;70147.22;;;-148.95;100.00
38558;BME280;24333;42.626;23.308;2023-05-15T05:30:45;70151.38;;;-148.95;100.00
38558;BME280;24333;42.626;23.308;2023-05-15T05:33:12;70163.81;;;-148.95;100.00
38558;BME280;24333;42.626;23.308;2023-05-15T05:35:37;70184.56;;;-148.95;100.00
38558;BME280;24333;42.626;23.308;2023-05-15T05:38:03;70182.50;;;-148.95;100.00
38558;BME280;24333;42.626;23.308;2023-05-15T05:40:29;70174.19;;;-148.95;100.00
38558;BME280;24333;42.626;23.308;2023-05-15T05:42:58;70167.97;;;-148.95;100.00
38558;BME280;24333;42.626;23.308;2023-05-15T05:45:24;70157.59;;;-148.95;100.00
38558;BME280;24333;42.626;23.308;2023-05-15T05:47:49;70141.00;;;-148.95;100.00
38558;BME280;24333;42.626;23.308;2023-05-15T05:50:15;70114.03;;;-148.95;100.00
38558;BME280;24333;42.626;23.308;2023-05-15T05:52:40;70103.66;;;-148.95;100.00
38558;BME280;24333;42.626;23.308;2023-05-15T05:55:06;70105.75;;;-148.95;100.00
38558;BME280;24333;42.626;23.308;2023-05-15T05:57:31;70107.81;;;-148.95;100.00
38558;BME280;24333;42.626;23.308;2023-05-15T06:02:32;70087.06;;;-148.95;100.00
38558;BME280;24333;42.626;23.308;2023-05-15T06:07:36;70085.00;;;-148.95;100.00
38558;BME280;24333;42.626;23.308;2023-05-15T06:10:04;70066.31;;;-148.95;100.00
38558;BME280;24333;42.626;23.308;2023-05-15T06:12:31;70062.19;;;-148.95;100.00
38558;BME280;24333;42.626;23.308;2023-05-15T06:14:59;70037.28;;;-148.95;100.00
38558;BME280;24333;42.626;23.308;2023-05-15T06:17:25;70035.19;;;-148.95;100.00
38558;BME280;24333;42.626;23.308;2023-05-15T06:19:51;70014.47;;;-148.95;100.00
38558;BME280;24333;42.626;23.308;2023-05-15T06:22:17;69985.41;;;-148.95;100.00
38558;BME280;24333;42.626;23.308;2023-05-15T06:27:17;69948.06;;;-148.95;100.00
38558;BME280;24333;42.626;23.308;2023-05-15T06:29:43;69946.00;;;-148.95;100.00
38558;BME280;24333;42.626;23.308;2023-05-15T06:32:09;69927.31;;;-148.95;100.00
38558;BME280;24333;42.626;23.308;2023-05-15T06:37:02;69900.38;;;-148.95;100.00
38558;BME280;24333;42.626;23.308;2023-05-15T06:39:28;69900.38;;;-148.95;100.00
38558;BME280;24333;42.626;23.308;2023-05-15T06:41:53;69906.59;;;-148.95;100.00
38558;BME280;24333;42.626;23.308;2023-05-15T06:44:23;69912.81;;;-148.95;100.00
38558;BME280;24333;42.626;23.308;2023-05-15T06:46:48;69898.28;;;-148.95;100.00
38558;BME280;24333;42.626;23.308;2023-05-15T06:49:14;69927.31;;;-148.95;100.00
38558;BME280;24333;42.626;23.308;2023-05-15T06:51:39;69927.31;;;-148.95;100.00
38558;BME280;24333;42.626;23.308;2023-05-15T06:56:43;69916.97;;;-148.95;100.00
38558;BME280;24333;42.626;23.308;2023-05-15T06:59:12;69919.03;;;-148.95;100.00
38558;BME280;24333;42.626;23.308;2023-05-15T07:01:39;69900.38;;;-148.95;100.00
38558;BME280;24333;42.626;23.308;2023-05-15T07:04:10;69881.69;;;-148.95;100.00
38558;BME280;24333;42.626;23.308;2023-05-15T07:06:36;69887.91;;;-148.95;100.00
38558;BME280;24333;42.626;23.308;2023-05-15T07:19:32;69823.59;;;-148.95;100.00
38558;BME280;24333;42.626;23.308;2023-05-15T07:21:58;69817.38;;;-148.95;100.00
38558;BME280;24333;42.626;23.308;2023-05-15T07:24:26;69829.84;;;-148.95;100.00
38558;BME280;24333;42.626;23.308;2023-05-15T07:26:55;69829.84;;;-148.95;100.00
38558;BME280;24333;42.626;23.308;2023-05-15T07:29:21;69840.19;;;-148.95;100.00
38558;BME280;24333;42.626;23.308;2023-05-15T07:31:47;69848.50;;;-148.95;100.00
38558;BME280;24333;42.626;23.308;2023-05-15T07:34:13;69840.19;;;-148.95;100.00
38558;BME280;24333;42.626;23.308;2023-05-15T07:36:38;69840.19;;;-148.95;100.00
38558;BME280;24333;42.626;23.308;2023-05-15T07:46:49;69831.91;;;-148.95;100.00
38558;BME280;24333;42.626;23.308;2023-05-15T07:49:15;69833.97;;;-148.95;100.00
38558;BME280;24333;42.626;23.308;2023-05-15T08:01:31;69863.03;;;-148.95;100.00
38558;BME280;24333;42.626;23.308;2023-05-15T08:51:48;69898.28;;;-148.95;100.00
38558;BME280;24333;42.626;23.308;2023-05-15T08:59:24;69877.53;;;-148.95;100.00
38558;BME280;24333;42.626;23.308;2023-05-15T09:01:52;69871.31;;;-148.95;100.00
38558;BME280;24333;42.626;23.308;2023-05-15T09:05:08;69863.03;;;-148.95;100.00
38558;BME280;24333;42.626;23.308;2023-05-15T09:07:35;69858.88;;;-148.95;100.00
38558;BME280;24333;42.626;23.308;2023-05-15T09:10:03;69860.94;;;-148.95;100.00
38558;BME280;24333;42.626;23.308;2023-05-15T09:15:31;69848.50;;;-148.95;100.00
38558;BME280;24333;42.626;23.308;2023-05-15T09:17:57;69842.28;;;-148.95;100.00
38558;BME280;24333;42.626;23.308;2023-05-15T09:20:36;69825.69;;;-148.95;100.00
38558;BME280;24333;42.626;23.308;2023-05-15T09:23:03;69809.09;;;-148.95;100.00
38558;BME280;24333;42.626;23.308;2023-05-15T09:29:30;69777.97;;;-148.95;100.00
38558;BME280;24333;42.626;23.308;2023-05-15T09:31:55;69757.22;;;-148.95;100.00
38558;BME280;24333;42.626;23.308;2023-05-15T09:34:35;69753.06;;;-148.95;100.00
38558;BME280;24333;42.626;23.308;2023-05-15T09:37:02;69732.34;;;-148.95;100.00
38558;BME280;24333;42.626;23.308;2023-05-15T09:39:28;69703.28;;;-148.95;100.00
38558;BME280;24333;42.626;23.308;2023-05-15T09:42:04;69680.47;;;-148.95;100.00
38558;BME280;24333;42.626;23.308;2023-05-15T10:05:12;69620.31;;;-148.95;100.00
38558;BME280;24333;42.626;23.308;2023-05-15T10:07:38;69620.31;;;-148.95;100.00
38558;BME280;24333;42.626;23.308;2023-05-15T10:15:08;69686.69;;;-148.95;100.00
38558;BME280;24333;42.626;23.308;2023-05-15T10:17:35;69678.41;;;-148.95;100.00
38558;BME280;24333;42.626;23.308;2023-05-15T10:20:01;69670.09;;;-148.95;100.00
38558;BME280;24333;42.626;23.308;2023-05-15T10:22:29;69676.31;;;-148.95;100.00
38558;BME280;24333;42.626;23.308;2023-05-15T10:25:00;69688.78;;;-148.95;100.00
38558;BME280;24333;42.626;23.308;2023-05-15T10:27:27;69719.88;;;-148.95;100.00
38558;BME280;24333;42.626;23.308;2023-05-15T10:29:55;69734.41;;;-148.95;100.00
38558;BME280;24333;42.626;23.308;2023-05-15T10:32:21;69748.94;;;-148.95;100.00
38558;BME280;24333;42.626;23.308;2023-05-15T10:34:47;69751.00;;;-148.95;100.00
38558;BME280;24333;42.626;23.308;2023-05-15T10:37:13;69742.72;;;-148.95;100.00
38558;BME280;24333;42.626;23.308;2023-05-15T10:39:46;69740.63;;;-148.95;100.00
38558;BME280;24333;42.626;23.308;2023-05-15T10:42:33;69732.34;;;-148.95;100.00
38558;BME280;24333;42.626;23.308;2023-05-15T10:45:00;69738.56;;;-148.95;100.00
38558;BME280;24333;42.626;23.308;2023-05-15T10:47:28;69763.44;;;-148.95;100.00
38558;BME280;24333;42.626;23.308;2023-05-15T10:49:54;69777.97;;;-148.95;100.00
38558;BME280;24333;42.626;23.308;2023-05-15T10:52:19;69777.97;;;-148.95;100.00
38558;BME280;24333;42.626;23.308;2023-05-15T10:54:45;69782.13;;;-148.95;100.00
38558;BME280;24333;42.626;23.308;2023-05-15T10:57:10;69769.69;;;-148.95;100.00
38558;BME280;24333;42.626;23.308;2023-05-15T10:59:37;69765.53;;;-148.95;100.00
38558;BME280;24333;42.626;23.308;2023-05-15T11:02:21;69753.06;;;-148.95;100.00
38558;BME280;24333;42.626;23.308;2023-05-15T11:04:53;69757.22;;;-148.95;100.00
38558;BME280;24333;42.626;23.308;2023-05-15T11:07:19;69744.78;;;-148.95;100.00
38558;BME280;24333;42.626;23.308;2023-05-15T11:09:54;69742.72;;;-148.95;100.00
38558;BME280;24333;42.626;23.308;2023-05-15T11:12:56;69746.84;;;-148.95;100.00
38558;BME280;24333;42.626;23.308;2023-05-15T11:15:21;69724.03;;;-148.95;100.00
38558;BME280;24333;42.626;23.308;2023-05-15T11:18:04;69699.16;;;-148.95;100.00
38558;BME280;24333;42.626;23.308;2023-05-15T11:20:37;69678.41;;;-148.95;100.00
38558;BME280;24333;42.626;23.308;2023-05-15T11:23:03;69668.03;;;-148.95;100.00
38558;BME280;24333;42.626;23.308;2023-05-15T11:25:29;69649.38;;;-148.95;100.00
38558;BME280;24333;42.626;23.308;2023-05-15T11:27:57;69651.44;;;-148.95;100.00
38558;BME280;24333;42.626;23.308;2023-05-15T11:30:42;69626.53;;;-148.95;100.00
38558;BME280;24333;42.626;23.308;2023-05-15T11:33:12;69585.06;;;-148.95;100.00
38558;BME280;24333;42.626;23.308;2023-05-15T11:35:39;69543.56;;;-148.95;100.00
38558;BME280;24333;42.626;23.308;2023-05-15T11:38:23;69520.75;;;-148.95;100.00
38558;BME280;24333;42.626;23.308;2023-05-15T11:40:59;69522.84;;;-148.95;100.00
38558;BME280;24333;42.626;23.308;2023-05-15T11:43:31;69485.50;;;-148.95;100.00
38558;BME280;24333;42.626;23.308;2023-05-15T11:46:09;69452.31;;;-148.95;100.00
38558;BME280;24333;42.626;23.308;2023-05-15T11:48:40;69441.94;;;-148.95;100.00
38558;BME280;24333;42.626;23.308;2023-05-15T11:51:20;69446.09;;;-148.95;100.00
38558;BME280;24333;42.626;23.308;2023-05-15T11:53:48;69412.91;;;-148.95;100.00
38558;BME280;24333;42.626;23.308;2023-05-15T11:56:18;69483.41;;;-148.95;100.00
38558;BME280;24333;42.626;23.308;2023-05-15T12:34:47;69305.03;;;-148.95;97.79
38558;BME280;24333;42.626;23.308;2023-05-15T12:37:17;69251.13;;;-148.95;95.12
38558;BME280;24333;42.626;23.308;2023-05-15T12:39:55;69147.41;;;-148.95;89.59
38558;BME280;24333;42.626;23.308;2023-05-15T12:42:21;69070.69;;;-148.95;83.60
38558;BME280;24333;42.626;23.308;2023-05-15T12:51:42;69027.13;;;-148.95;71.52
38558;BME280;24333;42.626;23.308;2023-05-15T12:54:19;69033.34;;;-148.95;71.62
38558;BME280;24333;42.626;23.308;2023-05-15T12:56:47;69027.13;;;-148.95;70.84
38558;BME280;24333;42.626;23.308;2023-05-15T12:59:13;69008.47;;;-148.95;70.86
38558;BME280;24333;42.626;23.308;2023-05-15T13:01:41;68993.94;;;-148.95;66.33
38558;BME280;24333;42.626;23.308;2023-05-15T13:04:07;69012.59;;;-148.95;68.59
38558;BME280;24333;42.626;23.308;2023-05-15T13:06:53;68987.72;;;-148.95;68.87
38558;BME280;24333;42.626;23.308;2023-05-15T13:09:22;68979.44;;;-148.95;67.42
38558;BME280;24333;42.626;23.308;2023-05-15T13:11:49;68966.97;;;-148.95;63.44
38558;BME280;24333;42.626;23.308;2023-05-15T13:14:18;68983.56;;;-148.95;66.17
38558;BME280;24333;42.626;23.308;2023-05-15T13:23:18;69027.13;;;-148.95;66.82
38558;BME280;24333;42.626;23.308;2023-05-15T13:25:44;69020.91;;;-148.95;68.36
38558;BME280;24333;42.626;23.308;2023-05-15T13:28:10;69029.19;;;-148.95;65.85
38558;BME280;24333;42.626;23.308;2023-05-15T13:30:37;69029.19;;;-148.95;68.19
38558;BME280;24333;42.626;23.308;2023-05-15T13:33:06;69041.66;;;-148.95;70.81
38558;BME280;24333;42.626;23.308;2023-05-15T13:35:54;69037.50;;;-148.95;67.71
38558;BME280;24333;42.626;23.308;2023-05-15T13:38:21;69039.56;;;-148.95;67.48
38558;BME280;24333;42.626;23.308;2023-05-15T13:40:46;69006.38;;;-148.95;67.58
38558;BME280;24333;42.626;23.308;2023-05-15T13:43:12;68948.31;;;-148.95;63.56
38558;BME280;24333;42.626;23.308;2023-05-15T13:46:01;68886.09;;;-148.95;62.60
38558;BME280;24333;42.626;23.308;2023-05-15T13:48:53;68852.91;;;-148.95;60.74
38558;BME280;24333;42.626;23.308;2023-05-15T13:52:09;68838.41;;;-148.95;60.68
38558;BME280;24333;42.626;23.308;2023-05-15T13:54:37;68886.09;;;-148.95;59.60
38558;BME280;24333;42.626;23.308;2023-05-15T13:57:06;68881.97;;;-148.95;58.48
38558;BME280;24333;42.626;23.308;2023-05-15T13:59:32;68865.38;;;-148.95;56.83
38558;BME280;24333;42.626;23.308;2023-05-15T14:02:00;68857.06;;;-148.95;56.92
38558;BME280;24333;42.626;23.308;2023-05-15T14:04:48;68906.84;;;-148.95;58.41
38558;BME280;24333;42.626;23.308;2023-05-15T14:07:31;68935.88;;;-148.95;58.60
38558;BME280;24333;42.626;23.308;2023-05-15T14:09:59;68925.50;;;-148.95;59.89
38558;BME280;24333;42.626;23.308;2023-05-15T14:22:56;68850.84;;;-148.95;58.12
38558;BME280;24333;42.626;23.308;2023-05-15T14:27:57;68842.56;;;-148.95;57.70
38558;BME280;24333;42.626;23.308;2023-05-15T14:30:22;68852.91;;;-148.95;57.90
38558;BME280;24333;42.626;23.308;2023-05-15T14:32:47;68857.06;;;-148.95;56.74
38558;BME280;24333;42.626;23.308;2023-05-15T15:21:46;68865.38;;;-148.95;55.32
38558;BME280;24333;42.626;23.308;2023-05-15T15:24:15;68859.16;;;-148.95;54.64
38558;BME280;24333;42.626;23.308;2023-05-15T15:26:42;68873.66;;;-148.95;54.89
38558;BME280;24333;42.626;23.308;2023-05-15T15:29:09;68890.25;;;-148.95;56.02
38558;BME280;24333;42.626;23.308;2023-05-15T15:31:36;68892.31;;;-148.95;56.82
38558;BME280;24333;42.626;23.308;2023-05-15T16:10:14;68952.47;;;-148.95;56.98
38558;BME280;24333;42.626;23.308;2023-05-15T16:12:40;68960.75;;;-148.95;57.00
38558;BME280;24333;42.626;23.308;2023-05-15T16:15:08;68981.50;;;-148.95;58.41
38558;BME280;24333;42.626;23.308;2023-05-15T16:17:36;69008.47;;;-148.95;58.72
38558;BME280;24333;42.626;23.308;2023-05-15T16:20:02;69035.41;;;-148.95;59.70
38558;BME280;24333;42.626;23.308;2023-05-15T16:22:32;69076.91;;;-148.95;60.88
38558;BME280;24333;42.626;23.308;2023-05-15T16:24:57;69105.94;;;-148.95;62.77
38558;BME280;24333;42.626;23.308;2023-05-15T16:27:22;69139.13;;;-148.95;63.04
38558;BME280;24333;42.626;23.308;2023-05-15T16:29:48;69155.72;;;-148.95;64.62
38558;BME280;24333;42.626;23.308;2023-05-15T16:32:13;69188.91;;;-148.95;66.68
38558;BME280;24333;42.626;23.308;2023-05-15T16:34:39;69205.50;;;-148.95;68.34
38558;BME280;24333;42.626;23.308;2023-05-15T16:37:04;69236.59;;;-148.95;69.72
38558;BME280;24333;42.626;23.308;2023-05-15T16:39:34;69253.19;;;-148.95;70.88
38558;BME280;24333;42.626;23.308;2023-05-15T16:42:04;69269.78;;;-148.95;72.88
38558;BME280;24333;42.626;23.308;2023-05-15T16:44:29;69309.19;;;-148.95;75.95
38558;BME280;24333;42.626;23.308;2023-05-15T16:46:55;69325.78;;;-148.95;78.89
38558;BME280;24333;42.626;23.308;2023-05-15T16:49:22;69375.56;;;-148.95;82.76
38558;BME280;24333;42.626;23.308;2023-05-15T16:51:56;69410.81;;;-148.95;84.51
38558;BME280;24333;42.626;23.308;2023-05-15T16:54:22;69421.19;;;-148.95;87.45
38558;BME280;24333;42.626;23.308;2023-05-15T16:56:47;69429.50;;;-148.95;87.36
38558;BME280;24333;42.626;23.308;2023-05-15T16:59:12;69435.72;;;-148.95;88.20
38558;BME280;24333;42.626;23.308;2023-05-15T17:01:38;69441.94;;;-148.95;89.00
38558;BME280;24333;42.626;23.308;2023-05-15T17:04:03;69452.31;;;-148.95;90.41
38558;BME280;24333;42.626;23.308;2023-05-15T17:06:30;69456.47;;;-148.95;92.28
38558;BME280;24333;42.626;23.308;2023-05-15T17:08:56;69468.91;;;-148.95;93.08
38558;BME280;24333;42.626;23.308;2023-05-15T17:11:21;69475.13;;;-148.95;93.41
38558;BME280;24333;42.626;23.308;2023-05-15T17:13:46;69495.88;;;-148.95;96.05
38558;BME280;24333;42.626;23.308;2023-05-15T17:16:26;69495.88;;;-148.95;95.79
38558;BME280;24333;42.626;23.308;2023-05-15T17:18:51;69500.00;;;-148.95;96.44
38558;BME280;24333;42.626;23.308;2023-05-15T17:21:17;69502.09;;;-148.95;99.13
38558;BME280;24333;42.626;23.308;2023-05-15T17:23:42;69502.09;;;-148.95;100.00
38558;BME280;24333;42.626;23.308;2023-05-15T17:26:07;69520.75;;;-148.95;100.00
38558;BME280;24333;42.626;23.308;2023-05-15T17:28:33;69549.78;;;-148.95;100.00
38558;BME280;24333;42.626;23.308;2023-05-15T17:30:59;69549.78;;;-148.95;100.00
38558;BME280;24333;42.626;23.308;2023-05-15T17:33:24;69562.25;;;-148.95;100.00
38558;BME280;24333;42.626;23.308;2023-05-15T17:35:49;69568.47;;;-148.95;100.00
38558;BME280;24333;42.626;23.308;2023-05-15T17:38:16;69576.75;;;-148.95;100.00
38558;BME280;24333;42.626;23.308;2023-05-15T17:40:41;69587.13;;;-148.95;100.00
38558;BME280;24333;42.626;23.308;2023-05-15T17:43:07;69587.13;;;-148.95;100.00
38558;BME280;24333;42.626;23.308;2023-05-15T17:45:34;69605.81;;;-148.95;100.00
38558;BME280;24333;42.626;23.308;2023-05-15T17:48:05;69609.94;;;-148.95;100.00
38558;BME280;24333;42.626;23.308;2023-05-15T17:50:30;69622.41;;;-148.95;100.00
38558;BME280;24333;42.626;23.308;2023-05-15T17:53:01;69639.00;;;-148.95;100.00